Time;durP1;ratioP1;P1;durP2;ratioP2;P2;SDS_P1;SDS_P2;PMS_P1;PMS_P2;Temp;Humidity;BMP_temperature;BMP_pressure;BME280_temperature;BME280_humidity;BME280_pressure;Samples;Min_cycle;Max_cycle;Signal;HPM_P1;HPM_P2
2022/08/24 00:01:51;;;;;;;5.18;3.03;;;18.40;99.90;;;17.88;100.00;97697.59;4984113;28;20153;-69
2022/08/24 00:04:19;;;;;;;4.25;2.85;;;18.50;99.90;;;17.91;100.00;97695.63;4988511;28;20133;-69
2022/08/24 00:06:46;;;;;;;3.60;2.35;;;18.50;99.90;;;18.10;100.00;97684.63;5004024;28;20054;-69
2022/08/24 00:09:12;;;;;;;4.18;2.58;;;18.60;99.90;;;18.05;100.00;97684.13;4986342;28;20076;-69
2022/08/24 00:11:39;;;;;;;4.82;2.40;;;18.50;99.90;;;17.75;100.00;97697.63;4988388;28;20062;-69
2022/08/24 00:14:07;;;;;;;7.97;2.65;;;18.60;99.90;;;17.63;100.00;97699.31;4986408;28;20153;-69
2022/08/24 00:16:34;;;;;;;5.25;2.28;;;18.50;99.90;;;17.65;100.00;97692.16;4987277;28;20395;-69
2022/08/24 00:19:01;;;;;;;4.45;2.65;;;18.40;99.90;;;17.69;100.00;97708.53;4988203;28;20124;-69
2022/08/24 00:21:28;;;;;;;3.70;2.40;;;18.40;99.90;;;17.88;100.00;97701.09;4982737;28;20455;-69
2022/08/24 00:23:55;;;;;;;5.00;2.92;;;18.40;99.90;;;17.75;100.00;97698.44;4988579;28;20096;-69
2022/08/24 00:26:22;;;;;;;4.30;2.50;;;18.40;99.90;;;17.67;100.00;97695.50;4986014;28;20399;-69
2022/08/24 00:28:56;;;;;;;3.80;2.25;;;18.30;99.90;;;17.73;100.00;97699.50;4982592;28;20094;-69
2022/08/24 00:31:24;;;;;;;6.03;2.78;;;18.30;99.90;;;17.73;100.00;97692.47;4985184;28;20138;-69
2022/08/24 00:33:52;;;;;;;3.35;2.10;;;18.30;99.90;;;17.77;100.00;97687.84;5002059;28;20047;-69
2022/08/24 00:36:20;;;;;;;4.88;2.00;;;18.30;99.90;;;17.80;100.00;97695.50;4985841;28;20375;-69
2022/08/24 00:38:48;;;;;;;3.25;2.13;;;18.30;99.90;;;17.77;100.00;97688.69;4989040;28;20074;-69
2022/08/24 00:41:16;;;;;;;5.28;2.47;;;18.30;99.90;;;17.63;100.00;97686.19;4972089;28;20086;-69
2022/08/24 00:44:00;;;;;;;5.47;2.25;;;18.30;99.90;;;17.58;100.00;97695.31;4988980;28;20137;-69
2022/08/24 00:46:54;;;;;;;3.90;2.42;;;18.30;99.90;;;17.64;100.00;97700.97;4986919;28;20061;-69
2022/08/24 00:49:39;;;;;;;3.90;2.28;;;18.30;99.90;;;17.69;100.00;97698.03;4977953;28;20610;-69
2022/08/24 00:52:24;;;;;;;4.32;2.40;;;18.20;99.90;;;17.74;100.00;97694.16;4989210;28;20118;-69
2022/08/24 00:55:01;;;;;;;4.57;2.45;;;18.20;99.90;;;17.61;100.00;97695.09;4982551;28;20082;-69
2022/08/24 00:57:36;;;;;;;6.70;3.92;;;18.10;99.90;;;17.09;100.00;97707.38;4988457;28;20050;-69
2022/08/24 01:00:20;;;;;;;6.88;3.30;;;18.10;99.90;;;17.04;100.00;97719.97;4988212;28;20136;-68
2022/08/24 01:02:51;;;;;;;4.28;2.70;;;18.00;99.90;;;17.20;100.00;97717.97;4983231;28;20053;-67
2022/08/24 01:05:18;;;;;;;5.63;3.30;;;18.00;99.90;;;17.31;100.00;97714.63;4999924;28;20129;-68
2022/08/24 01:07:48;;;;;;;4.60;2.70;;;17.90;99.90;;;17.28;100.00;97720.91;4986121;28;20054;-68
2022/08/24 01:10:21;;;;;;;4.45;2.78;;;17.90;99.90;;;17.22;100.00;97718.72;4986805;28;20057;-68
2022/08/24 01:12:52;;;;;;;7.50;3.30;;;17.90;99.90;;;17.04;100.00;97715.53;4986898;28;20130;-68
2022/08/24 01:15:29;;;;;;;8.18;3.10;;;17.90;99.90;;;16.80;100.00;97727.66;4988277;28;20050;-68
2022/08/24 01:20:49;;;;;;;5.40;3.22;;;17.70;99.90;;;16.46;100.00;97743.72;5000881;28;20133;-68
2022/08/24 01:23:45;;;;;;;5.72;3.35;;;17.50;99.90;;;16.45;100.00;97749.91;4989267;28;20138;-68
2022/08/24 01:26:22;;;;;;;6.35;3.35;;;17.40;99.90;;;16.23;100.00;97760.91;4982875;28;20068;-68
2022/08/24 01:28:55;;;;;;;5.65;3.72;;;17.30;99.90;;;16.08;100.00;97770.56;4983770;28;20517;-68
2022/08/24 01:31:24;;;;;;;5.38;2.78;;;17.20;99.90;;;16.24;100.00;97759.97;4987308;28;20081;-68
2022/08/24 01:33:54;;;;;;;6.85;3.33;;;17.10;99.90;;;16.50;100.00;97760.09;4987567;28;20101;-68
2022/08/24 01:36:35;;;;;;;4.32;2.85;;;17.20;99.90;;;16.53;100.00;97754.66;4986851;28;20053;-68
2022/08/24 01:39:15;;;;;;;5.20;3.30;;;17.30;99.90;;;16.45;100.00;97757.78;4987541;28;20412;-68
2022/08/24 01:41:43;;;;;;;5.50;3.35;;;17.40;99.90;;;16.48;100.00;97757.56;4987282;28;20086;-68
2022/08/24 01:44:10;;;;;;;6.97;3.38;;;17.40;99.90;;;16.44;100.00;97769.19;4986183;28;20058;-68
2022/08/24 01:46:37;;;;;;;6.70;3.80;;;17.30;99.90;;;16.24;100.00;97767.84;4981541;28;20138;-67
2022/08/24 01:49:04;;;;;;;3.83;3.13;;;17.20;99.90;;;16.37;100.00;97770.50;4984147;28;20157;-68
2022/08/24 01:51:32;;;;;;;5.35;3.30;;;17.10;99.90;;;16.49;100.00;97763.69;4983227;28;20046;-68
2022/08/24 01:54:01;;;;;;;4.55;2.85;;;17.00;99.90;;;16.58;100.00;97759.59;4987107;28;20058;-67
2022/08/24 01:56:31;;;;;;;7.45;2.63;;;17.10;99.90;;;16.58;100.00;97755.22;4987998;28;20512;-68
2022/08/24 01:58:59;;;;;;;4.75;2.97;;;17.20;99.90;;;16.69;100.00;97741.41;4991675;28;20105;-68
2022/08/24 02:01:29;;;;;;;5.22;2.85;;;17.20;99.90;;;16.50;100.00;97747.84;4983668;28;20160;-68
2022/08/24 02:04:01;;;;;;;4.28;2.20;;;17.10;99.90;;;16.57;100.00;97744.84;4986986;28;20492;-68
2022/08/24 02:06:28;;;;;;;4.63;2.50;;;17.10;99.90;;;16.50;100.00;97741.75;4985912;28;20050;-67
2022/08/24 02:08:55;;;;;;;6.05;2.83;;;17.10;99.90;;;16.45;100.00;97747.28;4985643;28;20065;-68
2022/08/24 02:11:22;;;;;;;8.13;3.00;;;17.10;99.90;;;16.22;100.00;97754.00;5002527;28;20659;-68
2022/08/24 02:13:49;;;;;;;4.50;2.70;;;17.10;99.90;;;16.00;100.00;97757.09;4982704;28;20046;-68
2022/08/24 02:16:18;;;;;;;4.72;2.95;;;17.00;99.90;;;16.05;100.00;97759.44;5001687;28;20047;-68
2022/08/24 02:18:45;;;;;;;4.70;2.85;;;16.90;99.90;;;16.02;100.00;97755.22;4977793;28;20079;-68
2022/08/24 02:21:13;;;;;;;4.68;2.63;;;16.90;99.90;;;15.99;100.00;97763.28;5002680;28;20466;-67
2022/08/24 02:23:41;;;;;;;4.95;2.67;;;16.80;99.90;;;16.09;100.00;97759.13;4986726;28;20093;-68
2022/08/24 02:26:10;;;;;;;5.30;2.80;;;16.70;99.90;;;15.96;100.00;97763.44;4982979;28;20047;-68
2022/08/24 02:28:38;;;;;;;3.95;2.55;;;16.70;99.90;;;15.86;100.00;97757.94;4981249;28;20082;-68
2022/08/24 02:31:09;;;;;;;5.00;3.00;;;16.60;99.90;;;15.89;100.00;97768.22;5003257;28;20109;-68
2022/08/24 02:33:38;;;;;;;5.15;2.97;;;16.60;99.90;;;15.76;100.00;97776.91;4980331;28;20530;-70
2022/08/24 02:36:10;;;;;;;5.57;2.80;;;16.60;99.90;;;15.60;100.00;97782.19;4984893;28;20054;-68
2022/08/24 02:38:53;;;;;;;5.53;3.20;;;;;;;15.46;100.00;97785.63;4980820;28;20165;-67
2022/08/24 02:41:36;;;;;;;5.05;3.13;;;16.60;99.90;;;15.46;100.00;97786.50;4986351;28;20078;-68
2022/08/24 02:44:04;;;;;;;;;;;16.60;99.90;;;15.43;100.00;97783.19;4981246;28;20427;-68
2022/08/24 02:46:31;;;;;;;4.15;2.47;;;16.60;99.90;;;15.57;100.00;97779.75;4979894;28;20035;-68
2022/08/24 02:48:59;;;;;;;4.53;2.55;;;16.50;99.90;;;15.51;100.00;97780.97;4980213;28;20054;-68
2022/08/24 02:51:40;;;;;;;9.50;3.20;;;16.50;99.90;;;15.46;100.00;97777.78;4981760;28;20050;-68
2022/08/24 02:54:16;;;;;;;4.97;3.50;;;16.30;99.90;;;15.38;100.00;97793.09;4979310;28;20428;-68
2022/08/24 02:56:45;;;;;;;6.43;3.55;;;16.20;99.90;;;15.47;100.00;97796.00;4984497;28;20053;-68
2022/08/24 02:59:12;;;;;;;4.75;3.30;;;16.30;99.90;;;15.15;100.00;97802.28;5001764;28;20051;-68
2022/08/24 03:01:40;;;;;;;8.27;3.42;;;16.30;99.90;;;15.26;100.00;97811.19;4984781;28;20082;-68
2022/08/24 03:04:07;;;;;;;4.75;2.97;;;16.20;99.90;;;15.32;100.00;97806.53;4986470;28;20579;-68
2022/08/24 03:06:34;;;;;;;6.07;3.17;;;16.10;99.90;;;15.43;100.00;97810.19;4986206;28;20141;-68
2022/08/24 03:09:02;;;;;;;5.63;3.50;;;16.00;99.90;;;15.46;100.00;97812.66;4986712;28;20064;-68
2022/08/24 03:11:29;;;;;;;6.03;2.97;;;16.10;99.90;;;15.46;100.00;97811.78;4986198;28;20076;-68
2022/08/24 03:13:57;;;;;;;6.65;3.25;;;16.10;99.90;;;15.56;100.00;97804.25;4987566;28;20500;-68
2022/08/24 03:16:30;;;;;;;4.45;2.85;;;16.10;99.90;;;15.59;100.00;97798.84;5000305;28;20050;-68
2022/08/24 03:18:57;;;;;;;4.68;2.47;;;16.10;99.90;;;15.53;100.00;97794.81;4986127;28;20082;-68
2022/08/24 03:21:25;;;;;;;5.53;3.05;;;16.10;99.90;;;15.54;100.00;97793.03;5000304;28;20132;-68
2022/08/24 03:23:52;;;;;;;4.88;3.20;;;16.10;99.90;;;15.46;100.00;97793.47;5002637;28;20133;-68
2022/08/24 03:26:20;;;;;;;4.80;3.25;;;16.00;99.90;;;15.22;100.00;97801.81;5000909;28;20161;-68
2022/08/24 03:28:47;;;;;;;5.78;3.33;;;15.90;99.90;;;15.29;100.00;97799.69;4986042;28;20070;-68
2022/08/24 03:31:16;;;;;;;5.25;3.10;;;15.90;99.90;;;15.19;100.00;97795.91;4981338;28;20047;-68
2022/08/24 03:33:43;;;;;;;7.10;3.03;;;15.80;99.90;;;15.24;100.00;97789.50;4966824;28;20149;-68
2022/08/24 03:36:10;;;;;;;7.40;3.50;;;15.80;99.90;;;15.16;100.00;97796.09;4983942;28;20133;-68
2022/08/24 03:38:41;;;;;;;6.25;3.30;;;15.80;99.90;;;15.21;100.00;97794.94;4980674;28;20465;-68
2022/08/24 03:41:09;;;;;;;6.45;3.40;;;15.80;99.90;;;15.25;100.00;97788.56;4984473;28;20054;-68
2022/08/24 03:43:47;;;;;;;4.30;2.80;;;15.90;99.90;;;15.12;100.00;97779.78;4982357;28;20486;-69
2022/08/24 03:46:22;;;;;;;4.65;2.75;;;15.90;99.90;;;15.03;100.00;97780.31;4978682;28;20176;-68
2022/08/24 03:48:52;;;;;;;4.75;2.88;;;15.80;99.90;;;15.03;100.00;97786.38;5001505;28;20137;-68
2022/08/24 03:51:24;;;;;;;4.65;3.13;;;15.80;99.90;;;15.00;100.00;97783.06;4980455;28;20082;-68
2022/08/24 03:53:53;;;;;;;6.82;3.80;;;15.70;99.90;;;15.09;100.00;97779.94;4977601;28;20068;-68
2022/08/24 03:56:20;;;;;;;5.53;3.13;;;15.70;99.90;;;14.73;100.00;97778.47;4982014;28;20060;-68
2022/08/24 03:58:48;;;;;;;4.82;2.95;;;15.70;99.90;;;14.88;100.00;97786.41;4982569;28;20051;-68
2022/08/24 04:01:16;;;;;;;6.47;3.42;;;15.70;99.90;;;14.83;100.00;97786.66;4982015;28;20592;-68
2022/08/24 04:03:46;;;;;;;4.30;2.90;;;15.60;99.90;;;15.08;100.00;97790.50;4985913;28;20491;-68
2022/08/24 04:06:16;;;;;;;4.18;2.53;;;15.60;99.90;;;15.09;100.00;97787.78;4983046;28;20129;-68
2022/08/24 04:08:44;;;;;;;4.55;2.88;;;15.60;99.90;;;15.02;100.00;97797.75;4987121;28;20057;-68
2022/08/24 04:11:15;;;;;;;4.60;3.15;;;15.60;99.90;;;15.05;100.00;97792.34;4968206;28;20141;-68
2022/08/24 04:13:43;;;;;;;3.97;2.97;;;15.50;99.90;;;15.06;100.00;97788.78;5001749;28;20129;-68
2022/08/24 04:16:14;;;;;;;5.63;3.25;;;15.60;99.90;;;15.02;100.00;97797.75;4981842;28;20702;-68
2022/08/24 04:18:41;;;;;;;5.15;3.42;;;15.60;99.90;;;15.04;100.00;97793.25;4976865;28;20087;-68
2022/08/24 04:21:23;;;;;;;7.10;4.00;;;15.60;99.90;;;14.75;100.00;97799.28;4983694;28;20046;-68
2022/08/24 04:23:51;;;;;;;4.23;3.17;;;15.60;99.90;;;14.70;100.00;97803.94;4974918;28;20137;-68
2022/08/24 04:26:23;;;;;;;6.88;4.18;;;15.50;99.90;;;14.48;100.00;97810.31;5000967;28;20155;-68
2022/08/24 04:29:12;;;;;;;7.18;4.32;;;15.40;99.90;;;14.51;100.00;97827.59;4984013;28;20054;-68
2022/08/24 04:31:41;;;;;;;6.45;3.55;;;15.30;99.90;;;14.64;100.00;97834.72;4985811;28;20096;-68
2022/08/24 04:34:10;;;;;;;5.43;4.22;;;15.30;99.90;;;14.62;100.00;97839.19;4979442;28;20492;-68
2022/08/24 04:36:40;;;;;;;6.45;3.85;;;15.40;99.90;;;14.57;100.00;97835.13;5000055;28;20513;-68
2022/08/24 04:39:07;;;;;;;6.57;3.72;;;15.30;99.90;;;14.37;100.00;97836.19;4977856;28;20362;-68
2022/08/24 04:41:34;;;;;;;5.28;4.05;;;15.20;99.90;;;14.26;100.00;97841.97;5001882;28;20050;-68
2022/08/24 04:44:02;;;;;;;9.10;4.45;;;15.10;99.90;;;14.36;100.00;97843.16;4988302;28;20096;-68
2022/08/24 04:46:29;;;;;;;7.03;4.95;;;15.10;99.90;;;14.39;100.00;97853.47;4978704;28;20082;-68
2022/08/24 04:48:56;;;;;;;7.82;4.85;;;15.10;99.90;;;14.55;100.00;97852.63;4983596;28;20160;-68
2022/08/24 04:51:23;;;;;;;9.63;4.38;;;15.10;99.90;;;14.57;100.00;97849.03;4983823;28;20137;-68
2022/08/24 04:53:53;;;;;;;7.40;4.43;;;;;;;14.62;100.00;97854.84;4983554;28;20365;-68
2022/08/24 04:56:23;;;;;;;5.38;3.60;;;;;;;14.83;100.00;97849.38;4985462;28;20066;-68
2022/08/24 04:58:52;;;;;;;5.25;4.10;;;;;;;14.61;100.00;97840.09;5004676;28;20058;-68
2022/08/24 05:01:23;;;;;;;7.05;4.30;;;15.70;99.90;;;14.69;100.00;97844.03;4986521;28;20058;-68
2022/08/24 05:03:53;;;;;;;6.07;3.67;;;15.60;99.90;;;14.69;100.00;97844.91;4984510;28;20046;-68
2022/08/24 05:06:28;;;;;;;6.20;4.28;;;15.40;99.90;;;14.67;100.00;97848.53;4986846;28;20055;-69
2022/08/24 05:08:56;;;;;;;7.28;3.85;;;15.40;99.90;;;14.87;100.00;97853.50;4984568;28;20082;-68
2022/08/24 05:11:25;;;;;;;6.15;3.33;;;15.40;99.90;;;14.89;100.00;97845.56;4986821;28;20638;-68
2022/08/24 05:13:54;;;;;;;6.75;4.10;;;15.50;99.90;;;15.13;100.00;97848.59;4983312;28;20050;-68
2022/08/24 05:16:22;;;;;;;7.15;4.30;;;15.60;99.90;;;15.05;100.00;97839.41;4984985;28;20133;-68
2022/08/24 05:18:51;;;;;;;6.55;3.35;;;15.70;99.90;;;15.08;100.00;97841.00;4984312;28;20166;-68
2022/08/24 05:21:21;;;;;;;5.00;3.88;;;15.80;99.90;;;15.17;100.00;97837.88;4985376;28;20261;-68
2022/08/24 05:23:49;;;;;;;6.70;3.80;;;15.80;99.90;;;15.23;100.00;97845.34;4987159;28;20137;-69
2022/08/24 05:26:21;;;;;;;6.57;4.03;;;15.90;99.90;;;15.19;100.00;97842.97;4986307;28;20423;-68
2022/08/24 05:28:48;;;;;;;6.55;4.68;;;16.00;99.90;;;15.11;100.00;97840.81;4986897;28;20060;-68
2022/08/24 05:31:19;;;;;;;6.70;3.55;;;16.00;99.90;;;15.31;100.00;97850.16;4988111;28;20042;-68
2022/08/24 05:33:47;;;;;;;6.45;4.30;;;16.10;99.90;;;15.37;100.00;97848.94;5003643;28;20222;-68
2022/08/24 05:36:28;;;;;;;10.85;3.95;;;16.20;99.90;;;15.10;100.00;97844.38;4984450;28;20121;-68
2022/08/24 05:38:59;;;;;;;7.03;3.67;;;16.30;99.90;;;15.24;100.00;97849.66;4985656;28;20060;-68
2022/08/24 05:41:27;;;;;;;6.28;3.70;;;16.30;99.90;;;15.46;100.00;97851.03;4984859;28;20126;-68
2022/08/24 05:43:54;;;;;;;5.85;3.88;;;16.30;99.90;;;15.55;100.00;97847.03;4986673;28;20538;-68
2022/08/24 05:46:21;;;;;;;6.00;3.53;;;16.40;99.90;;;15.48;100.00;97850.00;4988161;28;20169;-68
2022/08/24 05:48:49;;;;;;;7.38;4.05;;;16.40;99.90;;;15.62;100.00;97849.22;4981757;28;20055;-68
2022/08/24 05:51:20;;;;;;;7.07;4.00;;;16.40;99.90;;;15.83;100.00;97848.91;4983241;28;20050;-68
2022/08/24 05:53:47;;;;;;;8.00;3.38;;;16.50;99.90;;;15.99;100.00;97847.06;4985864;28;20050;-68
2022/08/24 05:56:16;;;;;;;4.28;3.20;;;16.70;99.90;;;16.23;100.00;97831.63;4983258;28;20488;-68
2022/08/24 05:58:44;;;;;;;6.32;3.78;;;17.00;99.90;;;16.31;100.00;97837.22;4970373;28;20082;-68
2022/08/24 06:01:23;;;;;;;5.43;3.78;;;17.20;99.90;;;16.62;100.00;97840.53;4978712;28;20085;-68
2022/08/24 06:03:52;;;;;;;5.50;4.15;;;17.40;99.90;;;16.75;100.00;97837.16;4980499;28;20058;-68
2022/08/24 06:06:21;;;;;;;6.43;4.35;;;;;;;16.70;100.00;97837.47;4967127;28;20543;-68
2022/08/24 06:08:52;;;;;;;4.68;3.97;;;;;;;16.73;100.00;97838.09;4979307;28;20058;-68
2022/08/24 06:11:25;;;;;;;6.78;4.55;;;;;;;16.92;100.00;97832.56;4984824;28;20205;-68
2022/08/24 06:14:00;;;;;;;7.22;3.85;;;;;;;17.11;100.00;97818.25;5003203;28;20069;-68
2022/08/24 06:16:38;;;;;;;4.93;2.83;;;;;;;17.33;100.00;97817.66;4988404;28;20054;-68
2022/08/24 06:19:07;;;;;;;6.65;2.35;;;;;;;17.52;100.00;97797.16;4985074;28;20094;-68
2022/08/24 06:21:36;;;;;;;5.57;2.00;;;;;;;17.72;100.00;97798.44;5001252;28;20563;-68
2022/08/24 06:24:05;;;;;;;5.85;1.98;;;;;;;17.87;100.00;97795.72;4985415;28;20060;-68
2022/08/24 06:29:19;;;;;;;4.13;2.17;;;;;;;18.33;100.00;97792.50;4998400;28;20148;-68
2022/08/24 06:31:48;;;;;;;4.82;2.42;;;;;;;18.59;100.00;97785.41;4982000;28;20491;-68
2022/08/24 06:34:22;;;;;;;5.60;2.17;;;;;;;18.83;100.00;97779.34;4985528;28;20078;-68
2022/08/24 06:36:49;;;;;;;3.67;2.33;;;;;;;18.98;100.00;97780.88;5000572;28;20060;-68
2022/08/24 06:39:17;;;;;;;5.25;2.38;;;20.10;99.90;;;19.19;100.00;97770.53;4981404;28;20165;-68
2022/08/24 06:41:44;;;;;;;3.63;2.08;;;20.10;99.90;;;19.23;100.00;97770.19;4986421;28;20054;-68
2022/08/24 06:44:11;;;;;;;5.18;1.92;;;20.20;99.90;;;19.37;100.00;97766.53;4981654;28;20046;-68
2022/08/24 06:46:38;;;;;;;4.95;2.00;;;20.30;99.90;;;19.53;100.00;97771.47;4981740;28;20050;-67
2022/08/24 06:49:06;;;;;;;3.92;2.08;;;20.40;99.90;;;19.62;100.00;97762.03;4984680;28;20417;-68
2022/08/24 06:51:34;;;;;;;3.15;1.60;;;20.60;99.90;;;19.79;100.00;97750.22;4977966;28;20840;-69
2022/08/24 06:54:01;;;;;;;3.65;1.90;;;20.70;99.90;;;19.94;100.00;97754.31;5001944;28;20057;-68
2022/08/24 06:56:28;;;;;;;3.28;1.33;;;20.90;99.90;;;19.98;100.00;97758.38;4986942;28;20132;-68
2022/08/24 06:58:55;;;;;;;4.72;2.05;;;21.00;99.90;;;20.33;100.00;97762.66;4977546;28;20472;-68
2022/08/24 07:01:27;;;;;;;2.55;1.55;;;21.10;99.90;;;20.46;100.00;97747.56;4969371;28;20424;-68
2022/08/24 07:03:55;;;;;;;5.10;2.30;;;21.20;99.90;;;20.57;100.00;97757.28;5000741;28;20079;-68
2022/08/24 07:06:24;;;;;;;4.85;1.95;;;21.50;99.90;;;20.60;100.00;97761.47;4979900;28;20089;-68
2022/08/24 07:08:52;;;;;;;10.73;2.10;;;21.60;99.90;;;20.73;100.00;97753.38;5002733;28;20165;-68
2022/08/24 07:11:19;;;;;;;6.05;2.17;;;21.70;99.90;;;20.85;100.00;97762.94;4977374;28;20656;-69
2022/08/24 07:13:48;;;;;;;3.15;1.85;;;21.80;99.90;;;20.97;100.00;97758.47;4979707;28;20043;-69
2022/08/24 07:16:18;;;;;;;5.30;2.08;;;21.90;99.90;;;21.16;100.00;97750.69;4979152;28;20089;-69
2022/08/24 07:18:45;;;;;;;4.03;2.00;;;22.10;99.90;;;21.19;100.00;97755.72;4982233;28;20117;-68
2022/08/24 07:21:18;;;;;;;5.80;1.70;;;22.20;99.90;;;21.11;100.00;97763.44;4985328;28;20053;-70
2022/08/24 07:23:47;;;;;;;4.13;2.05;;;22.30;99.90;;;21.05;100.00;97762.16;4986153;28;20053;-69
2022/08/24 07:26:21;;;;;;;5.25;1.75;;;22.20;99.90;;;21.09;100.00;97760.91;4983337;28;20085;-69
2022/08/24 07:29:03;;;;;;;4.55;2.08;;;22.20;99.90;;;21.16;100.00;97760.41;4987367;28;20420;-70
2022/08/24 07:31:37;;;;;;;6.57;1.98;;;22.30;99.90;;;21.38;100.00;97754.19;4983510;28;20051;-67
2022/08/24 07:34:08;;;;;;;5.53;1.90;;;22.40;99.90;;;21.63;100.00;97760.91;4985966;28;20062;-70
2022/08/24 07:36:37;;;;;;;5.68;2.17;;;22.40;99.90;;;21.45;100.00;97764.13;4986049;28;20062;-70
2022/08/24 07:39:10;;;;;;;5.18;1.95;;;22.50;99.90;;;21.61;100.00;97768.13;4985602;28;20054;-68
2022/08/24 07:41:43;;;;;;;7.85;2.00;;;22.60;99.90;;;21.57;100.00;97764.06;4984102;28;20427;-68
2022/08/24 07:44:30;;;;;;;4.00;2.00;;;22.60;99.90;;;21.59;100.00;97764.78;4982876;28;20523;-68
2022/08/24 07:46:57;;;;;;;4.65;1.95;;;22.70;99.90;;;21.98;100.00;97759.69;4981312;28;20054;-69
2022/08/24 07:49:44;;;;;;;4.50;1.83;;;22.90;99.90;;;22.24;100.00;97762.75;4972321;28;20050;-69
2022/08/24 07:52:12;;;;;;;5.05;2.17;;;22.90;99.90;;;22.38;100.00;97759.72;4985020;28;20046;-69
2022/08/24 07:54:39;;;;;;;9.88;2.28;;;23.10;99.90;;;22.41;100.00;97766.56;4995832;28;20167;-69
2022/08/24 07:57:07;;;;;;;8.32;1.90;;;23.20;99.90;;;22.46;100.00;97775.75;4979940;28;20061;-69
2022/08/24 07:59:36;;;;;;;4.68;1.90;;;23.40;99.90;;;22.82;100.00;97769.97;4984372;28;20062;-69
2022/08/24 08:02:04;;;;;;;4.25;1.90;;;23.50;99.90;;;22.86;100.00;97774.03;4975365;28;20055;-69
2022/08/24 08:04:31;;;;;;;2.97;1.50;;;23.80;99.90;;;23.19;100.00;97770.16;4982611;28;20386;-69
2022/08/24 08:07:01;;;;;;;4.90;2.08;;;23.90;99.90;;;23.20;100.00;97773.66;4978643;28;20050;-69
2022/08/24 08:09:28;;;;;;;5.07;2.22;;;24.00;99.90;;;23.40;100.00;97777.97;4976793;28;20058;-69
2022/08/24 08:11:55;;;;;;;4.30;1.60;;;24.20;99.90;;;23.82;100.00;97772.31;4985704;28;20056;-69
2022/08/24 08:14:22;;;;;;;7.00;2.00;;;24.50;99.90;;;23.94;100.00;97776.47;4974765;28;20057;-69
2022/08/24 08:16:49;;;;;;;3.97;1.92;;;24.70;99.90;;;24.00;100.00;97775.06;4983458;28;20595;-69
2022/08/24 08:19:16;;;;;;;3.92;1.80;;;24.90;99.90;;;23.89;100.00;97772.59;5001837;28;20142;-69
2022/08/24 08:24:34;;;;;;;6.85;2.03;;;25.30;99.90;;;24.14;100.00;97777.22;4976097;28;20050;-69
2022/08/24 08:27:01;;;;;;;5.63;1.83;;;25.40;99.90;;;24.31;100.00;97785.38;4986247;28;20153;-69
2022/08/24 08:29:32;;;;;;;5.15;1.75;;;25.50;99.50;;;24.41;100.00;97781.72;4986294;28;20061;-69
2022/08/24 08:31:59;;;;;;;2.95;1.70;;;25.80;99.00;;;25.35;100.00;97783.22;4988865;28;20130;-70
2022/08/24 08:34:30;;;;;;;5.57;1.60;;;26.20;99.20;;;25.43;100.00;97785.09;4985669;28;20145;-69
2022/08/24 08:36:58;;;;;;;4.55;1.70;;;26.60;98.00;;;25.51;100.00;97779.84;4978042;28;20054;-69
2022/08/24 08:39:26;;;;;;;5.25;1.75;;;26.90;97.50;;;25.75;100.00;97768.56;4988303;28;20050;-70
2022/08/24 08:42:27;;;;;;;5.57;1.92;;;27.20;96.90;;;26.47;100.00;97771.75;4981841;28;20105;-70
2022/08/24 08:45:21;;;;;;;4.57;2.10;;;27.40;95.60;;;26.92;100.00;97767.09;4982765;28;20086;-69
2022/08/24 08:48:10;;;;;;;5.80;1.83;;;27.50;95.50;;;26.70;100.00;97761.38;4986048;28;20105;-69
2022/08/24 08:51:26;;;;;;;6.40;1.80;;;27.80;95.00;;;27.61;100.00;97758.81;4982531;28;20576;-69
2022/08/24 08:55:07;;;;;;;6.70;1.88;;;28.30;94.40;;;27.92;100.00;97753.63;4987751;28;20050;-69
2022/08/24 08:57:35;;;;;;;6.78;1.70;;;28.70;93.30;;;28.65;100.00;97763.19;4947145;28;20133;-69
2022/08/24 09:00:31;;;;;;;5.65;1.67;;;28.90;93.10;;;29.00;100.00;97755.63;4985250;28;20058;-69
2022/08/24 09:03:06;;;;;;;5.80;1.60;;;29.10;92.30;;;29.15;100.00;97759.22;4985390;28;20133;-69
2022/08/24 09:05:54;;;;;;;5.93;2.00;;;29.20;91.80;;;29.60;100.00;97754.81;4984289;28;20050;-69
2022/08/24 09:08:58;;;;;;;7.97;1.83;;;29.30;91.20;;;29.04;100.00;97756.09;4986814;28;20145;-69
2022/08/24 09:12:11;;;;;;;11.25;1.85;;;29.50;90.70;;;29.58;100.00;97747.97;5003418;28;20062;-69
2022/08/24 09:14:53;;;;;;;7.05;1.60;;;29.80;90.40;;;29.77;100.00;97752.00;4984458;28;20105;-69
2022/08/24 09:18:07;;;;;;;6.00;1.80;;;29.80;88.70;;;29.34;100.00;97765.91;5003900;28;20086;-69
2022/08/24 09:21:42;;;;;;;4.13;1.65;;;29.80;88.70;;;29.86;100.00;97753.59;4985468;28;20061;-69
2022/08/24 09:24:53;;;;;;;10.30;1.45;;;30.00;88.10;;;29.39;100.00;97762.69;4934204;29;20071;-70
2022/08/24 09:27:42;;;;;;;;;;;30.30;86.70;;;30.38;100.00;97758.03;4975782;28;20209;-70
2022/08/24 09:30:20;;;;;;;4.85;1.38;;;30.50;85.90;;;30.51;100.00;97756.53;4984988;28;19926;-69
2022/08/24 09:33:18;;;;;;;3.05;1.08;;;30.70;84.70;;;30.87;93.62;97753.06;4986202;28;20053;-69
2022/08/24 09:35:51;;;;;;;5.78;1.00;;;30.70;83.20;;;30.94;91.38;97760.13;4986082;28;20050;-69
2022/08/24 09:39:00;;;;;;;3.22;0.85;;;30.80;82.20;;;32.26;86.13;97761.41;4985306;28;20137;-69
2022/08/24 09:42:25;;;;;;;3.50;0.82;;;31.20;81.90;;;32.43;84.24;97751.97;5003837;28;20096;-69
2022/08/24 09:45:39;;;;;;;4.65;0.90;;;31.60;80.50;;;32.27;80.32;97750.47;4977050;28;20095;-69
2022/08/24 09:48:44;;;;;;;2.72;0.93;;;31.90;78.40;;;32.12;79.81;97749.75;4986211;28;20092;-69
2022/08/24 09:51:30;;;;;;;2.83;1.10;;;;;;;32.06;75.73;97756.75;4982964;28;20133;-69
2022/08/24 09:54:09;;;;;;;5.00;1.00;;;31.80;75.20;;;32.39;75.90;97749.88;4985147;28;20072;-69
2022/08/24 09:57:38;;;;;;;3.42;1.10;;;32.00;76.00;;;32.29;74.56;97751.06;4985471;28;20428;-69
2022/08/24 10:00:38;;;;;;;2.42;0.88;;;32.20;75.00;;;34.22;71.02;97744.28;4947657;29;20058;-70
2022/08/24 10:03:38;;;;;;;2.35;0.93;;;32.50;75.90;;;32.61;75.05;97750.63;4931696;29;20048;-69
2022/08/24 10:06:17;;;;;;;3.58;0.80;;;32.60;74.90;;;32.85;72.48;97744.69;4973658;28;20078;-69
2022/08/24 10:08:56;;;;;;;4.43;0.90;;;32.60;73.50;;;32.27;71.93;97742.41;4985501;28;20046;-68
2022/08/24 10:12:12;;;;;;;1.73;0.77;;;32.40;73.40;;;32.56;67.98;97745.03;5000458;28;20042;-68
2022/08/24 10:14:59;;;;;;;2.30;0.80;;;32.60;71.40;;;33.06;66.66;97732.13;4979829;28;20082;-68
2022/08/24 10:18:13;;;;;;;5.22;1.17;;;32.50;72.20;;;33.01;68.62;97731.91;4985059;28;20148;-69
2022/08/24 10:21:01;;;;;;;4.43;0.98;;;32.80;71.80;;;32.71;67.94;97737.63;4976513;28;20069;-69
2022/08/24 10:24:03;;;;;;;2.50;0.90;;;32.90;71.00;;;33.39;67.67;97734.00;4983142;28;20081;-69
2022/08/24 10:26:58;;;;;;;4.22;0.80;;;33.00;71.40;;;33.63;62.97;97725.34;4982111;28;20197;-68
2022/08/24 10:29:57;;;;;;;2.10;0.90;;;33.20;70.10;;;32.94;65.87;97723.81;4976008;28;20075;-68
2022/08/24 10:33:09;;;;;;;3.53;0.80;;;33.00;69.90;;;33.08;63.99;97725.53;4984756;28;20139;-69
2022/08/24 10:35:57;;;;;;;4.32;0.80;;;32.90;69.80;;;32.80;66.33;97728.34;5002744;28;20061;-68
2022/08/24 10:42:06;;;;;;;5.35;1.00;;;33.00;70.00;;;33.78;63.20;97714.34;4988487;28;20066;-69
2022/08/24 10:44:48;;;;;;;2.53;0.93;;;33.30;69.50;;;34.24;60.75;97710.72;4980057;28;20058;-69
2022/08/24 10:47:27;;;;;;;2.08;0.95;;;33.50;69.20;;;33.84;61.32;97708.09;5001079;28;20147;-68
2022/08/24 10:50:15;;;;;;;2.33;0.80;;;33.50;68.70;;;33.97;64.16;97707.25;4982031;28;20062;-69
2022/08/24 10:53:15;;;;;;;3.25;1.05;;;33.50;69.00;;;32.70;67.48;97712.59;4984086;28;20818;-69
2022/08/24 10:55:43;;;;;;;5.57;1.20;;;33.10;68.60;;;32.37;68.86;97707.09;4979835;28;20448;-69
2022/08/24 10:58:56;;;;;;;4.43;0.88;;;32.70;69.00;;;33.00;67.34;97709.53;4983349;28;20046;-68
2022/08/24 11:01:32;;;;;;;1.50;0.80;;;33.20;69.30;;;34.44;64.96;97697.16;4982582;28;20430;-69
2022/08/24 11:04:11;;;;;;;2.25;0.98;;;33.40;70.20;;;34.24;62.01;97696.41;4985153;28;20120;-69